Dupage Airport
KDPA : now visible

Airfield :











YOU CAN JOIN US ON...

 
LOGIN :

Register | Disclaimer

   EN    FR    IT 

 









Legend :    VFR   Marginal VFR   IFR   Intensive IFR   Very Intensive IFR
Visi :
Ceiling :
>= 8 km
>= 3000ft
5 to 8 km
1000 to 3000 ft
1500m to 5 km
500 to 1000 ft
800 to 1500m
200 to 500 ft
< 800m
< 200 ft
Symbols :   Thunderstorms  Fog  Heavy snow  Heavy precipitations  Wind > 20 kt






- Airport Elevation : 759 ft


KDPA - Dupage

CURRENT METAR :
  • 261652Z 34016KT 10SM FEW020 OVC040 M02/M06 A3006 RMK AO2 SLP189 T10171061

EXPIRED METARs :
  • 261629Z 34014KT 10SM SCT021 OVC040 M02/M06 A3006 RMK AO2 T10171061
  • 261602Z 35014KT 10SM BKN019 OVC033 M02/M06 A3006 RMK AO2 T10171061
  • 261501Z 34018KT 10SM OVC031 M03/M07 A3006 RMK AO2 T10281067
  • 261452Z 35019G24KT 10SM OVC029 M03/M07 A3006 RMK AO2 SLP187 60000 T10281067 58001

TAF KDPA
Valid from the 26 at 15:00 until the 27 at 12:00 UTC


261502Z 2615/2712 35015G25KT P6SM BKN025 OVC040
FM261800 35015G25KT 5SM -SHSN OVC025
FM270200 32013G18KT P6SM BKN025
FM270800 31012KT P6SM SCT025 BKN040



MET'MAP, your aeronautical weather chart ! - Copyright ORBIFLY December 2007 - Disclaimer

ORBIFLY MET'MAP TEAM :

Programming & Development : Alexandra Zaïnal
Concept & original design : Baudouin d'Aumeries
Assistance for programming : Marc-Olivier Méhu
Technical & hardware support : Manuel Goepfert

Contact : metmap@orbifly.com




SOURCES & CREDITS :

   NOAA       Earth
Advisory